Disclaimer

Please do not use the information listed here in-flight or in-navigation, as they are not provided to us by the airports but are provided by volunteers, so they might be outdated.

Search


Regions


Airport information page

Radio informations:
ROATAN TWR - 118.1 MHz
Ground (GND) - 121.6 MHz

Airport informations:
Latitude: 16° 19' 00.53" N
Longitude: 086° 31' 22.66" W
Elevation: 18 feet - 5 meters
Operating hours: Remarks
Operating agency: Civil government, landing fees and diplomatic clearance may be required
Timezone: UTC-6
Fuel: Unknown fuel type or whether there is any fuel.

Runway information:
07/25 - 7349 x 148 feet< - >2240 x 45 meters

Recent METARs:
MHRO 162300Z 25012KT 1000 SHRA SCT007 SCT018CB OVC070 24/23 Q1014 A2995 NOSIG
MHRO 162300Z 25012KT 1000 SHRA SCT007 SCT018CB OVC070 24/23 Q1014 A2995 NOSIG
MHRO 170000Z 27014KT 0500 +SHRA SCT006 SCT018CB OVC070 22/22 Q1015 A2997 NOSIG

Airport on the map: